Latest Weather Observations for Mount Ginini

IDN60901

Issued at 7:51 pm EST Wednesday 12 August 2020 (issued every 10 minutes, with the page automatically refreshed every 10 minutes)

About weather observations | Map of Canberra area stations | Latest observations for Canberra area | Other Formats
Station Details ID: 070349 Name: MOUNT GININI AWS Lat: -35.53 Lon: 148.77 Height: 1760.0 m
Data from the previous 72 hours. | See also: Recent months at Mount Ginini
Date/Time
EST
Temp
°C
App
Temp
°C
Dew
Point
°C
Rel
Hum
%
Delta-T
°C
Wind Press
QNH
hPa
Press
MSL
hPa
Rain since
9am
mm
Dir  Spd
km/h
Gust
km/h
Spd
kts
Gust
kts
12/07:30pm 2.1 -2.4 2.0 99 0.0 WNW 15 26 8 14 - - 2.8
12/07:00pm 2.0 -2.5 1.9 99 0.0 NW 15 28 8 15 - - 2.8
12/06:30pm 1.9 -2.7 1.8 99 0.0 NW 15 24 8 13 - - 2.4
12/06:00pm 1.7 -2.5 1.6 99 0.0 NW 13 24 7 13 - - 2.2
12/05:30pm 1.7 -3.3 1.6 99 0.0 NW 17 28 9 15 - - 1.8
12/05:00pm 1.6 -3.4 1.5 99 0.0 NW 17 32 9 17 - - 1.8
12/04:30pm 1.7 -3.3 1.6 99 0.0 NW 17 26 9 14 - - 1.2
12/04:00pm 1.8 -3.5 1.7 99 0.0 NW 19 33 10 18 - - 1.0
12/03:30pm 1.8 -2.8 1.7 99 0.0 NW 15 26 8 14 - - 0.6
12/03:00pm 1.9 -2.7 1.8 99 0.0 NW 15 24 8 13 - - 0.4
12/02:30pm 1.6 -3.8 1.5 99 0.0 NW 19 30 10 16 - - 0.2
12/02:00pm 1.8 -3.1 1.7 99 0.0 NNW 17 32 9 17 - - 0.0
12/01:30pm 1.6 -3.4 1.5 99 0.0 NW 17 28 9 15 - - 0.0
12/01:00pm 1.6 -3.4 1.5 99 0.0 NW 17 35 9 19 - - 0.0
12/12:30pm 1.4 -2.5 1.3 99 0.0 NW 11 22 6 12 - - 0.0
12/12:00pm 1.4 -3.2 1.3 99 0.0 NW 15 30 8 16 - - 0.0
12/11:30am 1.4 -2.9 1.3 99 0.0 NW 13 24 7 13 - - 0.0
12/11:00am 1.3 -4.1 1.2 99 0.0 NW 19 33 10 18 - - 0.0
12/10:30am 1.2 -4.2 1.1 99 0.0 NW 19 32 10 17 - - 0.0
12/10:00am 1.1 -4.5 1.0 99 0.0 NW 20 32 11 17 - - 0.0
12/09:30am 1.1 -3.6 1.0 99 0.0 NW 15 28 8 15 - - 0.0
12/09:00am 1.1 -4.3 1.0 99 0.0 NW 19 32 10 17 - - 0.0
12/08:30am 1.0 -5.4 0.9 99 0.0 NW 24 41 13 22 - - 0.0
12/08:00am 1.1 -5.3 1.0 99 0.0 NW 24 37 13 20 - - 0.0
12/07:30am 0.8 -4.9 0.7 99 0.0 NW 20 35 11 19 - - 0.0
12/07:00am 0.8 -4.9 0.7 99 0.0 NW 20 32 11 17 - - 0.0
12/06:30am 0.7 -5.0 0.6 99 0.0 NW 20 33 11 18 - - 0.0
12/06:00am 0.6 -4.5 0.5 99 0.0 NW 17 28 9 15 - - 0.0
12/05:30am 0.5 -5.0 0.4 99 0.0 NW 19 35 10 19 - - 0.0
12/05:00am 0.5 -5.6 0.4 99 0.0 NW 22 35 12 19 - - 0.0
12/04:30am 0.5 -5.6 0.4 99 0.0 NW 22 37 12 20 - - 0.0
12/04:00am 0.6 -5.9 0.5 99 0.0 NW 24 43 13 23 - - 0.0
12/03:30am 0.6 -6.2 0.5 99 0.0 NW 26 48 14 26 - - 0.0
12/03:00am 0.6 -6.6 0.5 99 0.0 NW 28 46 15 25 - - 0.0
12/02:59am 0.6 -6.6 0.5 99 0.0 NW 28 46 15 25 - - 0.0
12/02:30am 0.3 -5.8 0.2 99 0.0 NW 22 35 12 19 - - 0.0
12/02:00am 0.7 -5.8 0.6 99 0.0 NW 24 43 13 23 - - 0.0
12/01:30am 0.7 -6.1 0.6 99 0.0 NW 26 41 14 22 - - 0.0
12/01:00am 0.5 -6.0 0.2 98 0.1 NW 24 37 13 20 - - 0.0
12/12:30am 0.7 -6.5 0.4 98 0.1 NW 28 43 15 23 - - 0.0
12/12:00am 0.7 -5.8 0.3 97 0.2 NW 24 39 13 21 - - 0.0
 
Date/Time
EST
Temp
°C
App
Temp
°C
Dew
Point
°C
Rel
Hum
%
Delta-T
°C
Wind Press
QNH
hPa
Press
MSL
hPa
Rain since
9am
mm
Dir  Spd
km/h
Gust
km/h
Spd
kts
Gust
kts
11/11:30pm 1.0 -5.7 -1.4 84 1.0 NW 24 41 13 22 - - 0.0
11/11:00pm 1.0 -5.1 0.3 95 0.3 NW 22 41 12 22 - - 0.0
11/10:30pm 2.2 -3.6 -9.1 43 3.9 N 15 33 8 18 - - 0.0
11/10:00pm 3.1 -3.4 -12.8 30 5.0 N 17 32 9 17 - - 0.0
11/09:30pm 3.4 -2.8 -13.8 27 5.3 N 15 28 8 15 - - 0.0
11/09:00pm 3.6 -2.9 -13.6 27 5.4 N 17 28 9 15 - - 0.0
11/08:30pm 3.7 -2.8 -13.5 27 5.4 N 17 32 9 17 - - 0.0
11/08:00pm 4.3 -1.9 -14.4 24 5.8 N 15 30 8 16 - - 0.0
11/07:30pm 4.0 -2.1 -13.7 26 5.6 NNW 15 28 8 15 - - 0.0
11/07:00pm 2.2 -4.2 -12.0 34 4.5 NW 17 22 9 12 - - 0.0
11/06:30pm 1.2 -4.4 -2.9 74 1.6 WNW 17 24 9 13 - - 0.0
11/06:00pm 1.0 -3.4 0.6 97 0.2 WNW 13 24 7 13 - - 0.0
11/05:30pm 1.5 -2.8 1.1 97 0.2 W 13 20 7 11 - - 0.0
11/05:00pm 3.5 -2.1 -6.2 49 3.5 NW 15 28 8 15 - - 0.0
11/04:30pm 3.5 -0.5 2.8 95 0.3 W 13 19 7 10 - - 0.0
11/04:00pm 3.9 -0.6 -3.1 60 2.7 NW 11 20 6 11 - - 0.0
11/03:30pm 5.7 1.6 -3.4 52 3.6 NW 9 17 5 9 - - 0.0
11/03:00pm 5.8 1.7 -6.4 41 4.5 NNW 7 17 4 9 - - 0.0
11/02:30pm 7.3 2.8 -6.4 37 5.2 NNW 9 20 5 11 - - 0.0
11/02:00pm 6.1 2.3 -3.8 49 3.9 NW 7 15 4 8 - - 0.0
11/01:30pm 6.7 2.6 -8.4 33 5.4 NNW 6 13 3 7 - - 0.0
11/01:00pm 7.3 2.7 -8.3 32 5.6 NW 9 17 5 9 - - 0.0
11/12:30pm 8.5 4.5 -8.1 30 6.1 NNW 6 13 3 7 - - 0.0
11/12:00pm 8.0 3.6 -12.4 22 6.7 NW 6 15 3 8 - - 0.0
11/11:30am 7.9 4.0 -11.4 24 6.5 NNW 4 11 2 6 - - 0.0
11/11:00am 9.2 4.9 -10.8 23 6.9 N 6 9 3 5 - - 0.0
11/10:30am 9.3 5.2 -13.8 18 7.5 N 4 9 2 5 - - 0.0
11/10:00am 9.0 4.9 -15.4 16 7.6 NNE 4 7 2 4 - - 0.0
11/09:30am 8.7 5.1 -12.4 21 7.0 N 2 4 1 2 - - 0.0
11/09:00am 7.9 4.1 -16.3 16 7.2 N 2 7 1 4 - - 0.0
11/08:30am 7.2 2.9 -17.7 15 7.1 NNE 4 6 2 3 - - 0.0
11/08:00am 6.1 1.9 -17.1 17 7.0 NNE 4 6 2 3 - - 0.0
11/07:30am 5.0 1.1 -19.4 15 6.8 NW 2 4 1 2 - - 0.0
11/07:00am 5.3 1.7 -19.2 15 6.9 CALM 0 2 0 1 - - 0.0
11/06:30am 4.6 0.3 -19.8 15 6.7 WNW 4 4 2 2 - - 0.0
11/06:00am 4.3 0.0 -19.3 16 6.5 WNW 4 6 2 3 - - 0.0
11/05:30am 4.5 -0.2 -19.1 16 6.5 W 6 6 3 3 - - 0.0
11/05:00am 4.0 -0.7 -19.5 16 6.4 W 6 7 3 4 - - 0.0
11/04:30am 5.4 1.1 -19.9 14 7.0 WNW 4 4 2 2 - - 0.0
11/04:00am 2.6 -1.0 -20.6 16 5.9 CALM 0 0 0 0 - - 0.0
11/03:30am 4.6 0.3 -19.0 16 6.6 N 4 6 2 3 - - 0.0
11/03:00am 3.5 -0.9 -20.7 15 6.3 N 4 6 2 3 - - 0.0
11/02:30am 4.3 0.3 -20.8 14 6.6 N 2 4 1 2 - - 0.0
11/02:00am 0.5 -2.7 -7.5 55 2.7 ENE 2 6 1 3 - - 0.0
11/01:30am -0.8 -6.0 -6.1 67 1.8 SSW 13 20 7 11 - - 0.0
11/01:00am -1.2 -6.0 -6.0 70 1.6 SSW 11 15 6 8 - - 0.0
11/12:30am 0.2 -3.7 -6.2 62 2.2 SSE 6 13 3 7 - - 0.0
11/12:00am -1.0 -4.5 -1.6 96 0.2 SSW 7 11 4 6 - - 0.0
 
Date/Time
EST
Temp
°C
App
Temp
°C
Dew
Point
°C
Rel
Hum
%
Delta-T
°C
Wind Press
QNH
hPa
Press
MSL
hPa
Rain since
9am
mm
Dir  Spd
km/h
Gust
km/h
Spd
kts
Gust
kts
10/11:30pm -1.8 -6.2 -2.2 97 0.1 SW 11 15 6 8 - - 0.0
10/11:00pm -1.7 -5.1 -2.4 95 0.2 S 6 9 3 5 - - 0.0
10/10:30pm -1.3 -4.8 -2.6 91 0.4 SSW 6 9 3 5 - - 0.0
10/10:00pm 1.1 -2.4 -10.7 41 3.8 ESE 2 7 1 4 - - 0.0
10/09:30pm -1.1 -4.5 -1.9 94 0.3 WSW 6 7 3 4 - - 0.0
10/09:00pm 0.0 -3.3 -8.4 53 2.8 SSE 2 6 1 3 - - 0.0
10/08:30pm 0.0 -3.2 -7.7 56 2.6 E 2 4 1 2 - - 0.0
10/08:00pm -0.3 -3.6 -1.0 95 0.3 WSW 6 7 3 4 - - 0.0
10/07:30pm -0.5 -4.4 -1.2 95 0.2 WSW 9 13 5 7 - - 0.0
10/07:00pm -0.7 -4.6 -1.4 95 0.2 WSW 9 13 5 7 - - 0.0
10/06:30pm -0.2 -3.7 -1.0 94 0.3 WSW 7 11 4 6 - - 0.0
10/06:00pm 0.3 -2.6 -1.1 90 0.6 WSW 4 7 2 4 - - 0.0
10/05:30pm 0.2 -2.6 -0.5 95 0.3 S 4 6 2 3 - - 0.0
10/05:00pm 0.9 -1.8 0.0 94 0.4 SSW 4 7 2 4 - - 0.0
10/04:30pm 1.8 -1.1 -0.8 83 1.1 SSE 4 6 2 3 - - 0.0
10/04:00pm 2.3 -1.5 -0.4 82 1.1 SW 9 15 5 8 - - 0.0
10/03:30pm 2.4 -0.7 0.1 85 1.0 WSW 6 13 3 7 - - 0.0
10/03:00pm 1.8 -0.9 0.6 92 0.5 ESE 4 13 2 7 - - 0.0
10/02:30pm 1.3 -2.4 0.1 92 0.5 E 9 22 5 12 - - 0.0
10/02:00pm 1.6 -1.6 0.7 94 0.4 ESE 7 20 4 11 - - 0.0
10/01:30pm 1.6 -1.6 0.9 95 0.3 ESE 7 20 4 11 - - 0.0
10/01:00pm 1.3 -2.3 0.6 95 0.3 E 9 24 5 13 - - 0.0
10/12:30pm 1.0 -2.3 0.4 96 0.2 ESE 7 28 4 15 - - 0.0
10/12:00pm 0.3 -3.4 -0.1 97 0.2 ESE 9 26 5 14 - - 0.0
10/11:30am -0.4 -4.6 -0.8 97 0.1 ESE 11 33 6 18 - - 0.0
10/11:00am -0.9 -4.8 -1.2 98 0.1 E 9 26 5 14 - - 0.0
10/10:30am -0.8 -4.6 -1.1 98 0.1 ESE 9 30 5 16 - - 0.0
10/10:00am -1.3 -6.0 -1.6 98 0.0 ESE 13 32 7 17 - - 0.0
10/09:30am -1.9 -7.0 -2.2 98 0.0 ESE 15 39 8 21 - - 0.0
10/09:00am -2.4 -8.0 -2.7 98 0.0 ESE 17 46 9 25 - - 6.0
10/08:30am -2.4 -7.2 -2.7 98 0.0 ESE 13 37 7 20 - - 6.0
10/08:00am -2.7 -8.7 -3.0 98 0.0 SE 19 37 10 20 - - 6.0
10/07:30am -2.6 -8.2 -2.9 98 0.0 ESE 17 35 9 19 - - 6.0
10/07:00am -2.6 -8.8 -2.9 98 0.0 SE 20 39 11 21 - - 6.0
10/06:30am -2.2 -7.4 -2.5 98 0.0 ESE 15 35 8 19 - - 6.0
10/06:00am -1.8 -6.9 -2.1 98 0.0 ESE 15 52 8 28 - - 6.0
10/05:30am -1.5 -6.2 -1.8 98 0.0 ESE 13 35 7 19 - - 6.0
10/05:00am -1.3 -6.0 -1.6 98 0.0 ESE 13 32 7 17 - - 6.0
10/04:30am -1.3 -6.7 -1.6 98 0.0 E 17 35 9 19 - - 6.0
10/04:00am -1.4 -6.1 -1.7 98 0.0 ESE 13 33 7 18 - - 6.0
10/03:30am -1.7 -6.8 -2.0 98 0.0 E 15 41 8 22 - - 6.0
10/03:00am -1.9 -8.7 -2.2 98 0.0 ESE 24 57 13 31 - - 6.0
10/02:30am -1.7 -7.2 -2.0 98 0.0 ESE 17 52 9 28 - - 5.8
10/02:00am -1.3 -6.4 -1.6 98 0.0 ESE 15 44 8 24 - - 5.8
10/01:30am -1.1 -8.6 -1.4 98 0.1 SE 28 48 15 26 - - 5.8
10/01:01am -0.8 -8.3 -1.1 98 0.1 SE 28 48 15 26 - - 5.4
10/01:00am -0.8 -8.3 -1.1 98 0.1 SE 28 43 15 23 - - 5.4
10/12:30am -0.7 -7.4 -1.0 98 0.1 SSE 24 43 13 23 - - 5.0
10/12:03am -0.7 -8.1 -1.0 98 0.1 SE 28 50 15 27 - - 4.8
10/12:00am -0.7 -7.8 -1.0 98 0.1 SE 26 50 14 27 - - 4.8
 
Date/Time
EST
Temp
°C
App
Temp
°C
Dew
Point
°C
Rel
Hum
%
Delta-T
°C
Wind Press
QNH
hPa
Press
MSL
hPa
Rain since
9am
mm
Dir  Spd
km/h
Gust
km/h
Spd
kts
Gust
kts
09/11:40pm -0.7 -8.1 -1.0 98 0.1 SE 28 46 15 25 - - 4.6
09/11:30pm -0.7 -7.0 -1.0 98 0.1 SE 22 52 12 28 - - 4.6
09/11:00pm -0.7 -6.6 -1.0 98 0.1 ESE 20 48 11 26 - - 4.6
09/10:30pm -0.7 -6.4 -1.0 98 0.1 ESE 19 46 10 25 - - 4.6
09/10:00pm -0.7 -6.6 -1.0 98 0.1 SE 20 43 11 23 - - 4.6
09/09:30pm -0.7 -8.5 -1.0 98 0.1 SE 30 67 16 36 - - 4.6
09/09:26pm -0.7 -8.9 -1.0 98 0.1 SE 32 67 17 36 - - 4.6
09/09:23pm -0.7 -8.1 -1.0 98 0.1 SE 28 48 15 26 - - 4.6
09/09:00pm -0.9 -7.6 -1.2 98 0.1 SE 24 46 13 25 - - 4.6
09/08:30pm -1.1 -7.8 -1.4 98 0.1 SE 24 48 13 26 - - 4.6
09/08:00pm -0.8 -6.5 -1.1 98 0.1 ESE 19 43 10 23 - - 4.6

Latest Capital City Observations: Canberra | Sydney | Melbourne | Brisbane | Adelaide | Perth | Hobart | Darwin

Other formats

Comma delimited format used in spreadsheet applications
http://www.bom.gov.au/fwo/IDN60903/IDN60903.95925.axf

JavaScript Object Notation format (JSON) in row-major order
http://www.bom.gov.au/fwo/IDN60903/IDN60903.95925.json

Data quality

Most of these data are generated automatically and are frequently updated. Quality checks on data are not normally performed. It is possible for incorrect values to appear. Refer to information at About Latest Weather Observations and please check the disclaimer before using these data.